Tiempo atmosférico en la estación meteorológica de Santervás de la Vega, Villapún, Palencia (985 m.)



Fecha
DESCASC
Temp. máxima en grados centígrados (hora)
DESCASC
Temp. mínima en grados centígrados (hora)
DESCASC
Temp. media en grados centígrados
DESCASC
Racha de viento máxima en m/sg (hora)
DESCASC
Velocidad máxima media en intervalos de 10 minutos(hora)
DESCASC
Precipitaciones diarias en mm
DESCASC
Precipitaciones de 00:00 a 06:00 en mm
DESCASC
Precipitaciones de 06:00 a 12:00 en mm
DESCASC
Precipitaciones de 12:00 a 18:00 en mm
DESCASC
Precipitaciones de 18:00 a 24:00 en mm
DESCASC
10-07-2020 27.3 (16:10) 11.8 (07:10) 19.5 11.39 (16:30) 6.11 (18:20) 0 0 0 0 0
09-07-2020 30.8 (17:40) 14.3 (06:20) 22.5 19.17 (19:30) 11.39 (19:30) 0 0 0 0 0
08-07-2020 30.5 (15:50) 14.7 (06:30) 22.6 13.89 (19:00) 8.06 (19:00) 0 0 0 0 0
07-07-2020 31.4 (19:00) 10.6 (06:40) 21 8.61 (20:20) 5.28 (20:20) 0 0 0 0 0
06-07-2020 25.8 (16:20) 12.8 (00:00) 19.3 10.28 (19:50) 6.39 (19:50) 0 0 0 0 0
05-07-2020 30.2 (17:10) 12.1 (05:40) 21.2 10.28 (17:10) 5 (20:50) 0 0 0 0 0
04-07-2020 28.6 (17:50) 7.3 (07:00) 18 8.06 (21:00) 5.28 (20:50) 0 0 0 0 0
03-07-2020 23.7 (18:30) 7.1 (06:50) 15.4 7.22 (11:00) 3.89 (21:40) 0 0 0 0 0
02-07-2020 24.4 (17:40) 10.6 (00:00) 17.5 11.67 (19:20) 6.67 (19:20) 0 0 0 0 0
01-07-2020 28.9 (17:10) 13.8 (00:00) 21.3 10.83 (15:10) 6.39 (14:10) 0 0 0 0 0
30-06-2020 30.7 (18:00) 11.1 (00:00) 20.9 9.17 (16:10) 5 (18:10) 0 0 0 0 0
29-06-2020 27.4 (18:50) 12.3 (00:00) 19.8 8.06 (20:30) 5.56 (20:30) 0 0 0 0 0
28-06-2020 26.9 (17:50) 9.9 (00:00) 18.4 8.89 (18:20) 5 (18:30) 0 0 0 0 0
27-06-2020 24.3 (18:40) 11.5 (00:00) 17.9 10.28 (10:40) 5.56 (13:50) 0 0 0 0 0
26-06-2020 25.6 (17:10) 13.3 (00:00) 19.5 9.72 (17:00) 6.11 (17:20) 0 0 0 0 0
25-06-2020 25.2 (18:10) 14.7 (00:00) 20 11.11 (19:30) 7.78 (19:30) 6.2 0.8 1.4 4 0
24-06-2020 28.3 (14:20) 15.3 (00:00) 21.8 14.72 (22:20) 7.5 (15:10) 0.6 0 0 0.6 0
23-06-2020 31.7 (18:10) 12.4 (00:00) 22.1 11.67 (23:20) 5.28 (23:20) 0 0 0 0 0
22-06-2020 27.9 (17:50) 11.3 (00:00) 19.6 8.61 (17:20) 5.28 (17:30) 0 0 0 0 0
21-06-2020 26.9 (18:50) 11.4 (00:00) 19.1 8.33 (21:00) 5.28 (20:20) 0 0 0 0 0
20-06-2020 25.6 (19:00) 8.1 (00:00) 16.9 9.72 (17:50) 4.72 (17:50) 0 0 0 0 0
19-06-2020 23.5 (19:00) 6.7 (00:00) 15.1 7.5 (18:40) 4.44 (18:20) 0 0 0 0 0
18-06-2020 20.8 (19:30) 6.7 (06:50) 13.7 10.28 (16:50) 4.17 (16:50) 0.2 0.2 0 0 0
17-06-2020 18.4 (18:30) 9 (00:00) 13.7 6.94 (20:30) 3.89 (20:30) 0.2 0 0.2 0 0
16-06-2020 18.9 (15:40) 6.7 (00:00) 12.8 11.67 (15:50) 8.06 (16:00) 0 0 0 0 0
15-06-2020 18.3 (17:40) 3.6 (00:00) 10.9 10.28 (15:40) 5.83 (16:40) 0 0 0 0 0
14-06-2020 17.5 (17:40) 3.1 (00:00) 10.3 9.72 (12:50) 5.83 (13:40) 0 0 0 0 0
13-06-2020 16.1 (17:50) 6.5 (00:00) 11.3 13.06 (18:10) 8.06 (18:10) 0 0 0 0 0
12-06-2020 13.1 (18:20) 6.1 (00:00) 9.6 14.44 (05:50) 9.17 (04:40) 2.8 0.8 0 1.8 0.2

Gráficas

Temp. máximas Temp. mínimas Temp. medias Precipitaciones Rachas de viento máximas Velocidades máximas media en intervalos de 10 minutos

Datos horarios

Fecha y hora oficial Temperatura (ºC) Velocidad del viento (km/h) Dirección del viento Racha (km/h) Dirección de racha Precipitación (mm) Presión (hPa) Tendencia (hPa) Humedad (%)
2020-07-11 23:00:00 17.6 12 Nordeste 28 Este 0 -- -- 70
2020-07-11 22:00:00 19.4 18 Este 30 Este 0 -- -- 66
2020-07-11 21:00:00 22.5 16 Nordeste 29 Este 0 -- -- 57
2020-07-11 20:00:00 24.6 18 Este 26 Este 0 -- -- 52
2020-07-11 19:00:00 26 18 Este 28 Este 0 -- -- 47
2020-07-11 18:00:00 26.6 19 Este 29 Este 0 -- -- 43
2020-07-11 17:00:00 26.5 16 Este 28 Este 0 -- -- 43
2020-07-11 16:00:00 26.1 18 Este 30 Este 0 -- -- 43
2020-07-11 15:00:00 25.1 19 Este 29 Este 0 -- -- 44
2020-07-11 14:00:00 24.3 18 Este 32 Este 0 -- -- 45
2020-07-11 13:00:00 22.9 19 Este 32 Este 0 -- -- 47
2020-07-11 12:00:00 20.7 18 Este 30 Este 0 -- -- 50
2020-07-11 11:00:00 18.7 19 Este 37 Este 0 -- -- 53
2020-07-11 10:00:00 16.5 24 Este 37 Este 0 -- -- 56
2020-07-11 09:00:00 14.9 20 Este 33 Este 0 -- -- 63
2020-07-11 08:00:00 12.8 17 Este 30 Este 0 -- -- 69
2020-07-11 07:00:00 11.3 15 Este 25 Este 0 -- -- 83
2020-07-11 06:00:00 11.4 15 Este 25 Este 0 -- -- 86
2020-07-11 05:00:00 11.8 16 Nordeste 28 Nordeste 0 -- -- 85
2020-07-11 04:00:00 12 17 Este 26 Nordeste 0 -- -- 85
2020-07-11 03:00:00 11.9 14 Este 25 Este 0 -- -- 87
2020-07-11 02:00:00 12 14 Este 29 Este 0 -- -- 87
2020-07-11 01:00:00 12.8 21 Este 29 Este 0 -- -- 86
2020-07-11 00:00:00 13.6 16 Este 28 Este 0 -- -- 85
2020-07-10 23:00:00 14.4 15 Este 27 Este 0 -- -- 83
2020-07-10 22:00:00 16.3 15 Nordeste 35 Este 0 -- -- 75
2020-07-10 21:00:00 19.5 19 Este 33 Este 0 -- -- 65
2020-07-10 20:00:00 21.9 18 Este 31 Este 0 -- -- 58
2020-07-10 19:00:00 24.4 19 Nordeste 33 Nordeste 0 -- -- 49
2020-07-10 18:00:00 25.9 16 Este 28 Este 0 -- -- 45
2020-07-10 17:00:00 26.8 16 Este 41 Este 0 -- -- 45
2020-07-10 16:00:00 27 13 Este 31 Este 0 -- -- 43
2020-07-10 15:00:00 26.7 14 Sudeste 27 Este 0 -- -- 41
2020-07-10 14:00:00 25.7 14 Sudeste 25 Sudeste 0 -- -- 46
2020-07-10 13:00:00 24.5 12 Este 27 Este 0 -- -- 52
2020-07-10 12:00:00 22.5 16 Este 27 Este 0 -- -- 58
2020-07-10 11:00:00 20.6 15 Este 23 Este 0 -- -- 66
2020-07-10 10:00:00 18.5 15 Este 23 Nordeste 0 -- -- 73
2020-07-10 09:00:00 15.9 17 Nordeste 24 Nordeste 0 -- -- 85
2020-07-10 08:00:00 14.1 8 Nordeste 12 Nordeste 0 -- -- 93
2020-07-10 07:00:00 11.9 9 Nordeste 12 Norte 0 -- -- 93
2020-07-10 06:00:00 13 10 Norte 14 Norte 0 -- -- 91
2020-07-10 05:00:00 13.8 9 Norte 19 Norte 0 -- -- 90
2020-07-10 04:00:00 14.1 10 Nordeste 19 Nordeste 0 -- -- 89
2020-07-10 03:00:00 15.1 13 Nordeste 23 Norte 0 -- -- 86
2020-07-10 02:00:00 14.7 12 Nordeste 15 Nordeste 0 -- -- 82
2020-07-10 01:00:00 15.2 6 Nordeste 10 Este 0 -- -- 72
2020-07-10 00:00:00 16 5 Nordeste 15 Norte 0 -- -- 69
2020-07-09 23:00:00 17.4 8 Noroeste 17 Norte 0 -- -- 66
2020-07-09 22:00:00 18.6 9 Nordeste 26 Este 0 -- -- 61
2020-07-09 21:00:00 20.4 20 Sudeste 47 Este 0 -- -- 57
2020-07-09 20:00:00 21.5 29 Sudeste 69 Este 0 -- -- 54
2020-07-09 19:00:00 27.4 17 Este 30 Nordeste 0 -- -- 42
2020-07-09 18:00:00 30.7 10 Este 27 Nordeste 0 -- -- 32
2020-07-09 17:00:00 30.4 15 Este 28 Nordeste 0 -- -- 29
2020-07-09 16:00:00 29.9 12 Este 27 Este 0 -- -- 32
2020-07-09 15:00:00 29.7 12 Este 30 Este 0 -- -- 35
2020-07-09 14:00:00 29.3 12 Sudeste 40 Este 0 -- -- 35
2020-07-09 13:00:00 28.3 12 Este 21 Este 0 -- -- 39
2020-07-09 12:00:00 26.6 13 Este 21 Este 0 -- -- 43
2020-07-09 11:00:00 24.7 12 Este 25 Este 0 -- -- 48
2020-07-09 10:00:00 22.5 14 Este 23 Este 0 -- -- 54
2020-07-09 09:00:00 20.2 12 Nordeste 17 Nordeste 0 -- -- 62
2020-07-09 08:00:00 17.4 12 Nordeste 17 Nordeste 0 -- -- 71
2020-07-09 07:00:00 15.1 9 Nordeste 12 Nordeste 0 -- -- 76
2020-07-09 06:00:00 14.6 9 Nordeste 18 Norte 0 -- -- 76
2020-07-09 05:00:00 16.4 13 Norte 19 Norte 0 -- -- 68
2020-07-09 04:00:00 15.7 13 Norte 17 Norte 0 -- -- 74
2020-07-09 03:00:00 16.3 10 Norte 17 Norte 0 -- -- 74
2020-07-09 02:00:00 17.6 8 Sudeste 33 Nordeste 0 -- -- 68
2020-07-09 01:00:00 18.8 10 Nordeste 27 Este 0 -- -- 63
2020-07-09 00:00:00 19.2 10 Este 26 Sur 0 -- -- 64
2020-07-08 23:00:00 21.1 12 Sur 21 Sur 0 -- -- 56
2020-07-08 22:00:00 23.2 7 Sudoeste 46 Sudeste 0 -- -- 49
2020-07-08 21:00:00 24.5 22 Sudeste 48 Sudeste 0 -- -- 38
2020-07-08 20:00:00 28.2 20 Nordeste 46 Este 0 -- -- 26
2020-07-08 19:00:00 28 29 Este 50 Nordeste 0 -- -- 25
2020-07-08 18:00:00 26.5 16 Este 32 Nordeste 0 -- -- 33
2020-07-08 17:00:00 27.9 16 Este 28 Este 0 -- -- 38
2020-07-08 16:00:00 29.5 19 Este 30 Este 0 -- -- 35
2020-07-08 15:00:00 30 18 Este 35 Sudeste 0 -- -- 31
2020-07-08 14:00:00 29 14 Este 25 Este 0 -- -- 33
2020-07-08 13:00:00 27.4 16 Este 29 Este 0 -- -- 34
2020-07-08 12:00:00 25.4 19 Este 30 Este 0 -- -- 36
2020-07-08 11:00:00 23.4 18 Este 34 Este 0 -- -- 39
2020-07-08 10:00:00 23.5 17 Nordeste 37 Nordeste 0 -- -- 36
2020-07-08 09:00:00 21.5 16 Nordeste 26 Nordeste 0 -- -- 31
2020-07-08 08:00:00 17.2 13 Nordeste 17 Nordeste 0 -- -- 33
2020-07-08 07:00:00 15.4 13 Nordeste 15 Nordeste 0 -- -- 37
2020-07-08 06:00:00 14.9 12 Nordeste 18 Nordeste 0 -- -- 38
2020-07-08 05:00:00 15 14 Nordeste 18 Nordeste 0 -- -- 49
2020-07-08 04:00:00 15.6 10 Nordeste 16 Nordeste 0 -- -- 57
2020-07-08 03:00:00 16.5 10 Nordeste 18 Nordeste 0 -- -- 66
2020-07-08 02:00:00 16.7 10 Este 16 Este 0 -- -- 65
2020-07-08 01:00:00 17.4 12 Nordeste 17 Este 0 -- -- 61
2020-07-08 00:00:00 18.1 10 Nordeste 16 Nordeste 0 -- -- 61
2020-07-07 23:00:00 19.6 9 Nordeste 16 Nordeste 0 -- -- 60
2020-07-07 22:00:00 22.4 7 Nordeste 26 Este 0 -- -- 50
2020-07-07 21:00:00 26.3 16 Nordeste 31 Nordeste 0 -- -- 39
2020-07-07 20:00:00 30.5 8 Este 21 Este 0 -- -- 28
2020-07-07 19:00:00 31.4 6 Este 19 Sudeste 0 -- -- 26
2020-07-07 18:00:00 31 8 Este 18 Nordeste 0 -- -- 28
2020-07-07 17:00:00 30.5 7 Nordeste 20 Sudoeste 0 -- -- 29
2020-07-07 16:00:00 29.6 5 Sur 15 Este 0 -- -- 29
2020-07-07 15:00:00 28.9 10 Sudeste 22 Sudeste 0 -- -- 28
2020-07-07 14:00:00 27.2 10 Este 20 Este 0 -- -- 26
2020-07-07 13:00:00 25.7 10 Este 19 Este 0 -- -- 26
2020-07-07 12:00:00 23.4 13 Este 21 Nordeste 0 -- -- 29
2020-07-07 11:00:00 21.1 14 Este 23 Este 0 -- -- 34
2020-07-07 10:00:00 18.5 17 Este 26 Este 0 -- -- 46
2020-07-07 09:00:00 15.5 12 Nordeste 22 Nordeste 0 -- -- 45
2020-07-07 08:00:00 11.7 12 Nordeste 20 Nordeste 0 -- -- 70
2020-07-07 07:00:00 10.6 12 Nordeste 16 Nordeste 0 -- -- 72
2020-07-07 06:00:00 11.6 14 Nordeste 18 Nordeste 0 -- -- 57
2020-07-07 05:00:00 11.2 11 Nordeste 18 Nordeste 0 -- -- 60
2020-07-07 04:00:00 11.3 11 Nordeste 20 Nordeste 0 -- -- 71
2020-07-07 03:00:00 11.7 12 Este 19 Este 0 -- -- 76
2020-07-07 02:00:00 11.7 11 Este 18 Este 0 -- -- 84
2020-07-07 01:00:00 12.2 11 Este 23 Nordeste 0 -- -- 84
2020-07-07 00:00:00 12.8 14 Este 27 Nordeste 0 -- -- 83
2020-07-06 23:00:00 13.8 14 Este 28 Este 0 -- -- 82
2020-07-06 22:00:00 15.3 15 Este 31 Este 0 -- -- 77
2020-07-06 21:00:00 18.3 18 Este 32 Este 0 -- -- 68
2020-07-06 20:00:00 21.2 20 Este 37 Este 0 -- -- 58
2020-07-06 19:00:00 23.4 20 Este 32 Este 0 -- -- 52
2020-07-06 18:00:00 24.7 20 Este 33 Este 0 -- -- 49
2020-07-06 17:00:00 25.4 19 Este 35 Este 0 -- -- 48
2020-07-06 16:00:00 25.2 13 Este 29 Este 0 -- -- 49
2020-07-06 15:00:00 25.1 17 Este 31 Este 0 -- -- 46
2020-07-06 14:00:00 24.5 14 Este 32 Este 0 -- -- 48
2020-07-06 13:00:00 23.5 16 Nordeste 28 Este 0 -- -- 53
2020-07-06 12:00:00 22.1 17 Este 27 Este 0 -- -- 59
2020-07-06 11:00:00 20.6 13 Este 26 Este 0 -- -- 67
2020-07-06 10:00:00 18.8 16 Este 26 Este 0 -- -- 71
2020-07-06 09:00:00 16.6 12 Este 18 Este 0 -- -- 80
2020-07-06 08:00:00 14.5 12 Este 23 Este 0 -- -- 90
2020-07-06 07:00:00 13.3 12 Nordeste 18 Nordeste 0 -- -- 93
2020-07-06 06:00:00 13.2 8 Nordeste 12 Nordeste 0 -- -- 93
2020-07-06 05:00:00 13.9 9 Nordeste 12 Nordeste 0 -- -- 92
2020-07-06 04:00:00 14.7 9 Nordeste 15 Este 0 -- -- 89
2020-07-06 03:00:00 15.6 7 Este 18 Nordeste 0 -- -- 86
2020-07-06 02:00:00 16.3 8 Este 14 Este 0 -- -- 81
2020-07-06 01:00:00 17.7 10 Este 17 Nordeste 0 -- -- 77
2020-07-06 00:00:00 19.3 10 Nordeste 18 Nordeste 0 -- -- 72
2020-07-05 23:00:00 20.7 11 Nordeste 24 Nordeste 0 -- -- 67
2020-07-05 22:00:00 22.8 14 Nordeste 30 Nordeste 0 -- -- 51
2020-07-05 21:00:00 26 15 Este 28 Nordeste 0 -- -- 46
2020-07-05 20:00:00 29.2 10 Este 21 Sudeste 0 -- -- 37
2020-07-05 19:00:00 29.7 6 Sudeste 21 Este 0 -- -- 36
2020-07-05 18:00:00 30.1 8 Este 37 Sudeste 0 -- -- 36
2020-07-05 17:00:00 30 5 Norte 24 Sudeste 0 -- -- 36
2020-07-05 16:00:00 29.4 11 Nordeste 22 Sudeste 0 -- -- 37
2020-07-05 15:00:00 28.5 9 Nordeste 23 Este 0 -- -- 38
2020-07-05 14:00:00 27.6 5 Norte 19 Nordeste 0 -- -- 40
2020-07-05 13:00:00 26.6 8 Nordeste 17 Este 0 -- -- 42
2020-07-05 12:00:00 25.4 10 Este 19 Nordeste 0 -- -- 43
2020-07-05 11:00:00 23.8 12 Este 19 Este 0 -- -- 47
2020-07-05 10:00:00 21.6 10 Nordeste 17 Nordeste 0 -- -- 53
2020-07-05 09:00:00 18.8 11 Nordeste 18 Nordeste 0 -- -- 61
2020-07-05 08:00:00 15.8 10 Nordeste 15 Nordeste 0 -- -- 73
2020-07-05 07:00:00 12.9 10 Norte 19 Nordeste 0 -- -- 80
2020-07-05 06:00:00 12.2 6 Nordeste 9 Nordeste 0 -- -- 84
2020-07-05 05:00:00 12.5 8 Nordeste 12 Nordeste 0 -- -- 83
2020-07-05 04:00:00 13.2 10 Nordeste 13 Nordeste 0 -- -- 80
2020-07-05 03:00:00 13.7 8 Nordeste 13 Este 0 -- -- 79
2020-07-05 02:00:00 14.9 7 Este 12 Este 0 -- -- 77
2020-07-05 01:00:00 15.7 8 Nordeste 16 Nordeste 0 -- -- 76
2020-07-05 00:00:00 17.1 11 Nordeste 16 Este 0 -- -- 69
2020-07-04 23:00:00 18.5 10 Nordeste 17 Este 0 -- -- 62
2020-07-04 22:00:00 20.6 11 Este 26 Este 0 -- -- 56
2020-07-04 21:00:00 23.7 19 Este 29 Este 0 -- -- 47
2020-07-04 20:00:00 27.7 7 Este 18 Sudeste 0 -- -- 29
2020-07-04 19:00:00 28.1 6 Nordeste 19 Este 0 -- -- 29
2020-07-04 18:00:00 28.6 10 Sudeste 22 Sudeste 0 -- -- 28
2020-07-04 17:00:00 27.6 6 Sur 23 Sudeste 0 -- -- 30
2020-07-04 16:00:00 27.6 6 Nordeste 19 Este 0 -- -- 29
2020-07-04 15:00:00 26.7 8 Sur 14 Sur 0 -- -- 30
2020-07-04 14:00:00 24.9 5 Oeste 17 Este 0 -- -- 33
2020-07-04 13:00:00 23 6 Noroeste 15 Noroeste 0 -- -- 36
2020-07-04 12:00:00 21.1 8 Oeste 17 Oeste 0 -- -- 45
2020-07-04 11:00:00 19.3 7 Oeste 17 Oeste 0 -- -- 56
2020-07-04 10:00:00 16.8 6 Noroeste 16 Noroeste 0 -- -- 65
2020-07-04 09:00:00 13.6 0 Calma 8 Nordeste 0 -- -- 82
2020-07-04 08:00:00 10.5 5 Nordeste 10 Norte 0 -- -- 93
2020-07-04 07:00:00 7.3 8 Norte 11 Nordeste 0 -- -- 99
2020-07-04 06:00:00 9.1 8 Nordeste 14 Nordeste 0 -- -- 99
2020-07-04 05:00:00 9.5 7 Nordeste 12 Nordeste 0 -- -- 99
2020-07-04 04:00:00 8.8 8 Nordeste 10 Nordeste 0 -- -- 94
2020-07-04 03:00:00 9.6 8 Nordeste 10 Nordeste 0 -- -- 94
2020-07-04 02:00:00 10.3 8 Nordeste 9 Nordeste 0 -- -- 90
2020-07-04 01:00:00 11.3 5 Este 11 Este 0 -- -- 87
2020-07-04 00:00:00 12.6 8 Nordeste 15 Este 0 -- -- 84
2020-07-03 23:00:00 14.5 11 Este 19 Nordeste 0 -- -- 76
2020-07-03 22:00:00 17.3 10 Nordeste 24 Este 0 -- -- 63
2020-07-03 21:00:00 22.3 6 Sudeste 16 Sur 0 -- -- 39
2020-07-03 20:00:00 23.1 8 Sudeste 20 Sudeste 0 -- -- 37
2020-07-03 19:00:00 23.2 4 Este 23 Sur 0 -- -- 39
2020-07-03 18:00:00 22.8 5 Nordeste 20 Sudeste 0 -- -- 38
2020-07-03 17:00:00 22.4 10 Sur 25 Sudeste 0 -- -- 39
2020-07-03 16:00:00 21.7 9 Sudeste 26 Este 0 -- -- 42
2020-07-03 15:00:00 20.7 13 Este 25 Sudeste 0 -- -- 44
2020-07-03 14:00:00 19.7 8 Norte 22 Este 0 -- -- 47
2020-07-03 13:00:00 18.7 9 Este 20 Este 0 -- -- 51
2020-07-03 12:00:00 17.6 8 Este 21 Este 0 -- -- 59
2020-07-03 11:00:00 15.8 10 Este 26 Este 0 -- -- 62
2020-07-03 10:00:00 13.5 13 Este 21 Este 0 -- -- 70
2020-07-03 09:00:00 11.2 10 Nordeste 17 Nordeste 0 -- -- 82
2020-07-03 08:00:00 9.1 8 Nordeste 11 Nordeste 0 -- -- 90
2020-07-03 07:00:00 7.2 5 Nordeste 9 Nordeste 0 -- -- 96
2020-07-03 06:00:00 7.6 6 Este 12 Este 0 -- -- 96
2020-07-03 05:00:00 7.7 6 Este 12 Este 0 -- -- 95
2020-07-03 04:00:00 7.9 6 Este 11 Este 0 -- -- 92
2020-07-03 03:00:00 8.4 6 Este 12 Este 0 -- -- 91
2020-07-03 02:00:00 9.1 6 Este 13 Este 0 -- -- 88
2020-07-03 01:00:00 9.8 9 Este 13 Este 0 -- -- 84
2020-07-03 00:00:00 10.6 5 Este 14 Nordeste 0 -- -- 81
2020-07-02 23:00:00 11.9 9 Nordeste 25 Este 0 -- -- 77
2020-07-02 22:00:00 13.5 16 Este 32 Nordeste 0 -- -- 70
2020-07-02 21:00:00 15.9 18 Este 32 Este 0 -- -- 65
2020-07-02 20:00:00 17.8 20 Nordeste 42 Este 0 -- -- 61
2020-07-02 19:00:00 18.9 19 Este 34 Nordeste 0 -- -- 59
2020-07-02 18:00:00 22.8 9 Nordeste 24 Oeste 0 -- -- 49
2020-07-02 17:00:00 23.6 4 Noroeste 30 Oeste 0 -- -- 37
2020-07-02 16:00:00 22.6 12 Oeste 26 Sudoeste 0 -- -- 39
2020-07-02 15:00:00 22.6 13 Sudoeste 27 Oeste 0 -- -- 42
2020-07-02 14:00:00 21.7 17 Oeste 30 Sudoeste 0 -- -- 48
2020-07-02 13:00:00 20.6 11 Sudoeste 21 Sudoeste 0 -- -- 53
2020-07-02 12:00:00 19.1 10 Sudoeste 22 Sur 0 -- -- 57
2020-07-02 11:00:00 17.6 4 Sudoeste 10 Sudeste 0 -- -- 71
2020-07-02 10:00:00 15.8 3 Sur 8 Sudeste 0 -- -- 83
2020-07-02 09:00:00 14.4 5 Sudeste 9 Sudeste 0 -- -- 91
2020-07-02 08:00:00 13.4 4 Nordeste 9 Este 0 -- -- 95
2020-07-02 07:00:00 12.8 6 Nordeste 8 Nordeste 0 -- -- 95
2020-07-02 06:00:00 13 0 Calma 9 Este 0 -- -- 95
2020-07-02 05:00:00 12.4 2 Este 8 Este 0 -- -- 97
2020-07-02 04:00:00 11.6 4 Este 6 Este 0 -- -- 96
2020-07-02 03:00:00 11.9 7 Nordeste 12 Nordeste 0 -- -- 95
2020-07-02 02:00:00 12.2 3 Nordeste 10 Nordeste 0 -- -- 92
2020-07-02 01:00:00 13.3 7 Nordeste 10 Nordeste 0 -- -- 91
2020-07-02 00:00:00 14.1 8 Este 13 Nordeste 0 -- -- 88
2020-07-01 23:00:00 15.4 10 Nordeste 18 Este 0 -- -- 83
2020-07-01 22:00:00 18.5 8 Este 21 Oeste 0 -- -- 72
2020-07-01 21:00:00 24.6 11 Oeste 27 Oeste 0 -- -- 41
2020-07-01 20:00:00 26.4 15 Oeste 31 Oeste 0 -- -- 37
2020-07-01 19:00:00 27.8 15 Oeste 35 Sudoeste 0 -- -- 34
2020-07-01 18:00:00 28.4 17 Oeste 31 Oeste 0 -- -- 33
2020-07-01 17:00:00 28.8 18 Oeste 39 Oeste 0 -- -- 34
2020-07-01 16:00:00 27.8 20 Oeste 39 Oeste 0 -- -- 32
2020-07-01 15:00:00 27.6 19 Oeste 36 Sudoeste 0 -- -- 31
2020-07-01 14:00:00 26.6 20 Sudoeste 36 Sudoeste 0 -- -- 34
2020-07-01 13:00:00 25.7 18 Oeste 32 Oeste 0 -- -- 40
2020-07-01 12:00:00 24.8 15 Oeste 28 Sudoeste 0 -- -- 50
2020-07-01 11:00:00 23.8 9 Sudoeste 18 Sudoeste 0 -- -- 57
2020-07-01 10:00:00 22.2 5 Sudeste 15 Sudeste 0 -- -- 64
2020-07-01 09:00:00 20.5 4 Este 7 Este 0 -- -- 70
2020-07-01 08:00:00 16.6 4 Nordeste 5 Este 0 -- -- 87
2020-07-01 07:00:00 14.4 4 Noroeste 11 Noroeste 0 -- -- 87
2020-07-01 06:00:00 14.2 4 Oeste 12 Norte 0 -- -- 87
2020-07-01 05:00:00 16.6 10 Norte 12 Norte 0 -- -- 81
2020-07-01 04:00:00 16.1 7 Norte 9 Nordeste 0 -- -- 83
2020-07-01 03:00:00 16.6 5 Nordeste 9 Nordeste 0 -- -- 80
2020-07-01 02:00:00 17.3 6 Norte 12 Nordeste 0 -- -- 79
2020-07-01 01:00:00 18.5 10 Norte 16 Norte 0 -- -- 76
2020-07-01 00:00:00 20.1 8 Norte 16 Nordeste 0 -- -- 73
2020-06-30 23:00:00 21.2 10 Nordeste 19 Nordeste 0 -- -- 70
2020-06-30 22:00:00 22.6 12 Nordeste 17 Nordeste 0 -- -- 58
2020-06-30 21:00:00 24.7 8 Norte 18 Norte 0 -- -- 45
2020-06-30 20:00:00 28.3 9 Noroeste 21 Noroeste 0 -- -- 31
2020-06-30 19:00:00 30.5 6 Oeste 31 Oeste 0 -- -- 32
2020-06-30 18:00:00 30.7 12 Oeste 29 Sudoeste 0 -- -- 29
2020-06-30 17:00:00 30.6 12 Oeste 33 Oeste 0 -- -- 29
2020-06-30 16:00:00 29.8 9 Sudoeste 23 Sudoeste 0 -- -- 32
2020-06-30 15:00:00 28.6 7 Oeste 26 Sudoeste 0 -- -- 38
2020-06-30 14:00:00 27.7 9 Sur 19 Sudeste 0 -- -- 43
2020-06-30 13:00:00 26.4 6 Sudoeste 15 Sur 0 -- -- 47
2020-06-30 12:00:00 25.4 8 Sudeste 15 Este 0 -- -- 50
2020-06-30 11:00:00 23.3 10 Este 18 Este 0 -- -- 52
2020-06-30 10:00:00 20.7 11 Nordeste 17 Nordeste 0 -- -- 57
2020-06-30 09:00:00 17.4 12 Nordeste 17 Nordeste 0 -- -- 63
2020-06-30 08:00:00 13.7 10 Nordeste 15 Nordeste 0 -- -- 74
2020-06-30 07:00:00 11.1 12 Nordeste 15 Nordeste 0 -- -- 83
2020-06-30 06:00:00 11.5 10 Nordeste 18 Nordeste 0 -- -- 81
2020-06-30 05:00:00 11.8 10 Nordeste 13 Nordeste 0 -- -- 89
2020-06-30 04:00:00 12.8 8 Este 12 Este 0 -- -- 90
2020-06-30 03:00:00 13.6 8 Nordeste 13 Nordeste 0 -- -- 91
2020-06-30 02:00:00 14.1 9 Nordeste 11 Nordeste 0 -- -- 89
2020-06-30 01:00:00 15 9 Nordeste 13 Nordeste 0 -- -- 84
2020-06-30 00:00:00 15.9 9 Nordeste 14 Nordeste 0 -- -- 80
2020-06-29 23:00:00 17.8 10 Nordeste 18 Nordeste 0 -- -- 77
2020-06-29 22:00:00 19.8 11 Nordeste 24 Este 0 -- -- 72
2020-06-29 21:00:00 22.6 17 Este 29 Este 0 -- -- 64
2020-06-29 20:00:00 24.7 12 Este 22 Este 0 -- -- 56
2020-06-29 19:00:00 27.3 9 Este 18 Este 0 -- -- 45
2020-06-29 18:00:00 27.1 9 Este 14 Nordeste 0 -- -- 45
2020-06-29 17:00:00 25.7 4 Nordeste 18 Sur 0 -- -- 47
2020-06-29 16:00:00 26.4 6 Oeste 17 Nordeste 0 -- -- 49
2020-06-29 15:00:00 24.5 8 Sudeste 18 Sudeste 0 -- -- 52
2020-06-29 14:00:00 23.4 5 Sur 15 Sudeste 0 -- -- 55
2020-06-29 13:00:00 22.7 5 Este 14 Este 0 -- -- 62
2020-06-29 12:00:00 21 6 Este 15 Este 0 -- -- 67
2020-06-29 11:00:00 19.8 7 Este 17 Este 0 -- -- 71
2020-06-29 10:00:00 17.6 9 Este 16 Nordeste 0 -- -- 81
2020-06-29 09:00:00 15.6 10 Nordeste 18 Este 0 -- -- 90
2020-06-29 08:00:00 14.4 7 Nordeste 13 Nordeste 0 -- -- 94
2020-06-29 07:00:00 13.4 8 Nordeste 12 Nordeste 0 -- -- 97
2020-06-29 06:00:00 12.7 8 Nordeste 11 Nordeste 0 -- -- 98
2020-06-29 05:00:00 12.4 9 Nordeste 11 Nordeste 0 -- -- 98
2020-06-29 04:00:00 12.6 7 Nordeste 12 Nordeste 0 -- -- 96
2020-06-29 03:00:00 13.4 9 Nordeste 13 Nordeste 0 -- -- 95
2020-06-29 02:00:00 14.1 6 Este 11 Este 0 -- -- 91
2020-06-29 01:00:00 14.9 6 Este 10 Nordeste 0 -- -- 89
2020-06-29 00:00:00 15.8 7 Nordeste 21 Este 0 -- -- 85
2020-06-28 23:00:00 17.7 10 Nordeste 18 Nordeste 0 -- -- 79
2020-06-28 22:00:00 20.7 4 Noroeste 10 Oeste 0 -- -- 66
2020-06-28 21:00:00 24.8 8 Noroeste 21 Oeste 0 -- -- 50
2020-06-28 20:00:00 26 13 Oeste 25 Oeste 0 -- -- 45
2020-06-28 19:00:00 26.4 16 Oeste 32 Oeste 0 -- -- 44
2020-06-28 18:00:00 26.4 15 Sudoeste 27 Oeste 0 -- -- 45
2020-06-28 17:00:00 26.6 15 Sudoeste 30 Sudoeste 0 -- -- 43
2020-06-28 16:00:00 26 9 Oeste 28 Sudoeste 0 -- -- 45
2020-06-28 15:00:00 25.1 14 Sudoeste 23 Oeste 0 -- -- 44
2020-06-28 14:00:00 24.1 10 Oeste 22 Oeste 0 -- -- 49
2020-06-28 13:00:00 22.9 10 Sudoeste 21 Sudoeste 0 -- -- 51
2020-06-28 12:00:00 21.5 6 Sudoeste 21 Sudoeste 0 -- -- 53
2020-06-28 11:00:00 19.7 4 Este 12 Sudeste 0 -- -- 68
2020-06-28 10:00:00 16.5 3 Este 9 Este 0 -- -- 83
2020-06-28 09:00:00 14.3 6 Nordeste 9 Nordeste 0 -- -- 91
2020-06-28 08:00:00 12.2 7 Nordeste 10 Nordeste 0 -- -- 96
2020-06-28 07:00:00 10.8 8 Norte 13 Norte 0 -- -- 98
2020-06-28 06:00:00 10.5 6 Nordeste 11 Norte 0 -- -- 93
2020-06-28 05:00:00 10.7 0 Calma -- -- 0 -- -- 91
2020-06-28 04:00:00 11.1 0 Calma 10 Oeste 0 -- -- 92
2020-06-28 03:00:00 11.6 7 Oeste 10 Oeste 0 -- -- 88
2020-06-28 02:00:00 13.7 3 Oeste 13 Oeste 0 -- -- 82
2020-06-28 01:00:00 15.6 10 Oeste 18 Oeste 0 -- -- 76
2020-06-28 00:00:00 16.3 10 Oeste 18 Oeste 0 -- -- 74
2020-06-27 23:00:00 17.4 9 Oeste 15 Oeste 0 -- -- 71
2020-06-27 22:00:00 18.9 8 Oeste 21 Oeste 0 -- -- 66
2020-06-27 21:00:00 21.8 14 Oeste 27 Oeste 0 -- -- 55
2020-06-27 20:00:00 23.2 15 Oeste 34 Oeste 0 -- -- 51
2020-06-27 19:00:00 24.1 16 Oeste 30 Oeste 0 -- -- 47
2020-06-27 18:00:00 24 20 Oeste 35 Oeste 0 -- -- 49
2020-06-27 17:00:00 23 17 Oeste 35 Oeste 0 -- -- 52
2020-06-27 16:00:00 23.3 17 Oeste 32 Oeste 0 -- -- 53
2020-06-27 15:00:00 21.5 15 Oeste 28 Oeste 0 -- -- 56
2020-06-27 14:00:00 20.8 18 Oeste 32 Sudoeste 0 -- -- 60
2020-06-27 13:00:00 19.5 17 Oeste 29 Oeste 0 -- -- 64
2020-06-27 12:00:00 20.3 19 Oeste 31 Oeste 0 -- -- 60
2020-06-27 11:00:00 18.7 18 Oeste 37 Oeste 0 -- -- 67
2020-06-27 10:00:00 16.3 15 Oeste 30 Oeste 0 -- -- 80
2020-06-27 09:00:00 14.8 13 Oeste 22 Oeste 0 -- -- 86
2020-06-27 08:00:00 13.1 7 Sudoeste 13 Sudoeste 0 -- -- 93
2020-06-27 07:00:00 11.6 9 Oeste 13 Oeste 0 -- -- 95
2020-06-27 06:00:00 11.8 9 Oeste 13 Oeste 0 -- -- 94
2020-06-27 05:00:00 12.9 6 Oeste 15 Oeste 0 -- -- 89
2020-06-27 04:00:00 13.3 10 Oeste 17 Oeste 0 -- -- 87
2020-06-27 03:00:00 14 3 Oeste 17 Oeste 0 -- -- 82
2020-06-27 02:00:00 15.1 10 Oeste 18 Oeste 0 -- -- 77
2020-06-27 01:00:00 15.6 10 Oeste 18 Oeste 0 -- -- 74
2020-06-27 00:00:00 16.3 11 Oeste 19 Oeste 0 -- -- 70
2020-06-26 23:00:00 17.2 9 Oeste 17 Oeste 0 -- -- 67
2020-06-26 22:00:00 19 8 Oeste 22 Oeste 0 -- -- 55
2020-06-26 21:00:00 21.9 10 Oeste 27 Oeste 0 -- -- 45
2020-06-26 20:00:00 23.5 12 Sudoeste 28 Oeste 0 -- -- 35
2020-06-26 19:00:00 24.9 20 Oeste 34 Oeste 0 -- -- 29
2020-06-26 18:00:00 24 17 Sudoeste 35 Sudoeste 0 -- -- 36
2020-06-26 17:00:00 25.1 20 Oeste 35 Oeste 0 -- -- 34
2020-06-26 16:00:00 24.5 19 Sudoeste 33 Oeste 0 -- -- 41
2020-06-26 15:00:00 23.8 18 Sudoeste 33 Sudoeste 0 -- -- 49
2020-06-26 14:00:00 23.5 17 Sudoeste 31 Sudoeste 0 -- -- 54
2020-06-26 13:00:00 21.8 14 Sudoeste 29 Sudoeste 0 -- -- 62
2020-06-26 12:00:00 21.7 8 Sudeste 15 Sudeste 0 -- -- 68
2020-06-26 11:00:00 20.2 5 Sur 13 Sudeste 0 -- -- 74
2020-06-26 10:00:00 18.3 6 Sudeste 15 Este 0 -- -- 81
2020-06-26 09:00:00 16.8 9 Nordeste 17 Este 0 -- -- 87
2020-06-26 08:00:00 14.6 10 Nordeste 14 Nordeste 0 -- -- 95
2020-06-26 07:00:00 13.3 8 Nordeste 12 Nordeste 0 -- -- 96
2020-06-26 06:00:00 13.9 10 Nordeste 14 Nordeste 0 -- -- 96
2020-06-26 05:00:00 14 10 Nordeste 15 Nordeste 0 -- -- 96
2020-06-26 04:00:00 14.2 10 Nordeste 14 Nordeste 0 -- -- 95
2020-06-26 03:00:00 14.4 10 Nordeste 13 Nordeste 0 -- -- 95
2020-06-26 02:00:00 15 9 Nordeste 14 Nordeste 0 -- -- 93
2020-06-26 01:00:00 16.3 9 Nordeste 19 Nordeste 0 -- -- 89
2020-06-26 00:00:00 16.7 11 Nordeste 18 Nordeste 0 -- -- 89
2020-06-25 23:00:00 17.1 10 Nordeste 17 Nordeste 0 -- -- 86
2020-06-25 22:00:00 18.2 8 Nordeste 17 Nordeste 0 -- -- 80
2020-06-25 21:00:00 19.9 7 Este 33 Este 0 -- -- 73
2020-06-25 20:00:00 23.2 24 Este 40 Este 0 -- -- 60
2020-06-25 19:00:00 23.9 14 Este 29 Este 0 -- -- 59
2020-06-25 18:00:00 24.7 16 Este 25 Este 0 -- -- 59
2020-06-25 17:00:00 23.8 15 Este 27 Este 0 -- -- 60
2020-06-25 16:00:00 22.3 16 Este 23 Este 0 -- -- 69
2020-06-25 15:00:00 20 12 Este 21 Este 0 -- -- 87
2020-06-25 14:00:00 18.4 7 Nordeste 13 Nordeste 1.6 -- -- 86
2020-06-25 13:00:00 17.8 11 Este 17 Este 2.4 -- -- 84
2020-06-25 12:00:00 20.1 9 Este 23 Sudeste 0.6 -- -- 76
2020-06-25 11:00:00 22.9 13 Este 20 Este 0 -- -- 60
2020-06-25 10:00:00 19.1 11 Nordeste 19 Nordeste 0 -- -- 77
2020-06-25 09:00:00 17.5 8 Nordeste 25 Nordeste 0 -- -- 84
2020-06-25 08:00:00 15.3 10 Noroeste 32 Oeste 0.2 -- -- 87
2020-06-25 07:00:00 15.2 12 Norte 32 Oeste 0.6 -- -- 88
2020-06-25 06:00:00 15.8 6 Norte 22 Este 0 -- -- 80
2020-06-25 05:00:00 15.2 10 Nordeste 15 Nordeste 0 -- -- 85
2020-06-25 04:00:00 14.7 9 Norte 11 Nordeste 0 -- -- 85
2020-06-25 03:00:00 15.7 8 Nordeste 14 Norte 0 -- -- 83
2020-06-25 02:00:00 16.6 12 Norte 22 Noroeste 0 -- -- 81
2020-06-25 01:00:00 16 11 Noroeste 26 Sur 0.8 -- -- 83
2020-06-25 00:00:00 18 21 Norte 31 Nordeste 0 -- -- 66
2020-06-24 23:00:00 0.1 13 Noroeste 53 Oeste 0 -- -- 30
2020-06-24 22:00:00 20.3 8 Oeste 15 Noroeste 0 -- -- 57
2020-06-24 21:00:00 20 0 Calma 5 Sur 0 -- -- 63
2020-06-24 20:00:00 22.6 6 Oeste 22 Sudoeste 0 -- -- 58
2020-06-24 19:00:00 25.8 7 Sudeste 17 Nordeste 0 -- -- 42
2020-06-24 18:00:00 26.4 12 Nordeste 31 Este 0 -- -- 40
2020-06-24 17:00:00 24.5 21 Este 37 Nordeste 0 -- -- 46
2020-06-24 16:00:00 21.6 6 Norte 42 Sudoeste 0.2 -- -- 63
2020-06-24 15:00:00 25.9 12 Sudoeste 32 Oeste 0 -- -- 44
2020-06-24 14:00:00 28.1 9 Sudeste 22 Este 0 -- -- 38
2020-06-24 13:00:00 25.3 12 Este 22 Norte -- -- -- 47
2020-06-24 12:00:00 26.4 12 Sudeste 21 Sudeste 0 -- -- 45
2020-06-24 11:00:00 25 14 Sudeste 23 Sudeste 0 -- -- 45
2020-06-24 10:00:00 24.4 13 Este 22 Este 0 -- -- 42
2020-06-24 09:00:00 21.3 9 Nordeste 14 Nordeste 0 -- -- 54
2020-06-24 08:00:00 17.9 10 Norte 17 Norte 0 -- -- 60
2020-06-24 07:00:00 16.5 13 Norte 15 Norte 0 -- -- 61
2020-06-24 06:00:00 15.8 7 Este 16 Sudeste 0 -- -- 65
2020-06-24 05:00:00 19.1 8 Norte 14 Norte 0 -- -- 46
2020-06-24 04:00:00 18.8 8 Norte 14 Nordeste 0 -- -- 50
2020-06-24 03:00:00 20.4 15 Norte 25 Nordeste 0 -- -- 46
2020-06-24 02:00:00 19.7 11 Norte 23 Norte 0 -- -- 56
2020-06-24 01:00:00 19.7 13 Noroeste 27 Norte 0 -- -- 63
2020-06-24 00:00:00 20.6 10 Nordeste 42 Sudeste 0 -- -- 63
2020-06-23 23:00:00 22.4 19 Sur 39 Sur 0 -- -- 52
2020-06-23 22:00:00 22.2 8 Nordeste 16 Nordeste 0 -- -- 50
2020-06-23 21:00:00 28 4 Norte 13 Norte 0 -- -- 36
2020-06-23 20:00:00 31.1 3 Norte 15 Oeste 0 -- -- 29
2020-06-23 19:00:00 31.4 9 Noroeste 19 Oeste 0 -- -- 26
2020-06-23 18:00:00 31.5 13 Oeste 22 Oeste 0 -- -- 24
2020-06-23 17:00:00 31.2 12 Noroeste 26 Oeste 0 -- -- 27
2020-06-23 16:00:00 31.1 6 Sudoeste 22 Oeste 0 -- -- 27
2020-06-23 15:00:00 30.4 7 Noroeste 21 Noroeste 0 -- -- 30
2020-06-23 14:00:00 29.6 9 Sudoeste 18 Sudoeste 0 -- -- 30
2020-06-23 13:00:00 28.3 7 Este 12 Sudeste 0 -- -- 33
2020-06-23 12:00:00 26.9 6 Este 15 Este 0 -- -- 38
2020-06-23 11:00:00 24.9 10 Este 22 Este 0 -- -- 38
2020-06-23 10:00:00 23.2 13 Este 21 Este 0 -- -- 38
2020-06-23 09:00:00 20.2 14 Nordeste 19 Nordeste 0 -- -- 41
2020-06-23 08:00:00 16.5 12 Nordeste 16 Norte 0 -- -- 50
2020-06-23 07:00:00 14.5 14 Norte 16 Nordeste 0 -- -- 52
2020-06-23 06:00:00 13.9 14 Norte 17 Norte 0 -- -- 58
2020-06-23 05:00:00 14.2 12 Norte 16 Nordeste 0 -- -- 63
2020-06-23 04:00:00 14.2 14 Norte 16 Norte 0 -- -- 73
2020-06-23 03:00:00 12.6 10 Nordeste 15 Norte 0 -- -- 85
2020-06-23 02:00:00 14.5 14 Nordeste 17 Nordeste 0 -- -- 80
2020-06-23 01:00:00 15.3 6 Nordeste 12 Nordeste 0 -- -- 80
2020-06-23 00:00:00 15.9 10 Nordeste 13 Nordeste 0 -- -- 79
2020-06-22 23:00:00 17.6 12 Nordeste 15 Este 0 -- -- 71
2020-06-22 22:00:00 21.1 10 Este 21 Este 0 -- -- 55
2020-06-22 21:00:00 24.8 14 Este 26 Nordeste 0 -- -- 42
2020-06-22 20:00:00 26.4 17 Este 27 Este 0 -- -- 32
2020-06-22 19:00:00 27.7 10 Nordeste 26 Nordeste 0 -- -- 33
2020-06-22 18:00:00 27.8 13 Este 31 Este 0 -- -- 33
2020-06-22 17:00:00 27.5 8 Nordeste 23 Este 0 -- -- 32
2020-06-22 16:00:00 26.8 8 Nordeste 21 Este 0 -- -- 36
2020-06-22 15:00:00 25.9 12 Este 23 Este 0 -- -- 37
2020-06-22 14:00:00 24.8 12 Este 24 Este 0 -- -- 41
2020-06-22 13:00:00 23.5 13 Este 27 Este 0 -- -- 46
2020-06-22 12:00:00 21.6 11 Este 21 Este 0 -- -- 53
2020-06-22 11:00:00 19.6 11 Este 19 Este 0 -- -- 63
2020-06-22 10:00:00 17 11 Este 19 Nordeste 0 -- -- 76
2020-06-22 09:00:00 14.5 10 Este 20 Este 0 -- -- 86
2020-06-22 08:00:00 12.2 15 Nordeste 20 Este 0 -- -- 97
2020-06-22 07:00:00 12.2 12 Nordeste 23 Nordeste 0 -- -- 97
2020-06-22 06:00:00 12.3 14 Nordeste 23 Este 0 -- -- 97
2020-06-22 05:00:00 12 11 Este 18 Este 0 -- -- 98
2020-06-22 04:00:00 11.5 8 Nordeste 14 Nordeste 0 -- -- 96
2020-06-22 03:00:00 12 8 Nordeste 12 Este 0 -- -- 95
2020-06-22 02:00:00 12.8 9 Este 15 Nordeste 0 -- -- 93
2020-06-22 01:00:00 13.5 10 Nordeste 16 Nordeste 0 -- -- 90
2020-06-22 00:00:00 14.9 12 Nordeste 18 Nordeste 0 -- -- 85
2020-06-21 23:00:00 16 9 Nordeste 20 Este 0 -- -- 80
2020-06-21 22:00:00 17.5 13 Nordeste 29 Nordeste 0 -- -- 73
2020-06-21 21:00:00 20.1 19 Nordeste 30 Nordeste 0 -- -- 63
2020-06-21 20:00:00 23.1 14 Este 27 Este 0 -- -- 56
2020-06-21 19:00:00 26.7 9 Noroeste 19 Oeste 0 -- -- 37
2020-06-21 18:00:00 26.1 5 Sur 15 Oeste 0 -- -- 37
2020-06-21 17:00:00 26.2 12 Oeste 20 Oeste 0 -- -- 35
2020-06-21 16:00:00 25.5 8 Noroeste 19 Noroeste 0 -- -- 38
2020-06-21 15:00:00 24.7 9 Sudoeste 17 Sur 0 -- -- 34
2020-06-21 14:00:00 23.4 6 Este 17 Sudoeste 0 -- -- 48
2020-06-21 13:00:00 22.3 6 Sudeste 16 Este 0 -- -- 50
2020-06-21 12:00:00 21 5 Este 14 Este 0 -- -- 56
2020-06-21 11:00:00 19.6 5 Este 15 Este 0 -- -- 61
2020-06-21 10:00:00 17.8 7 Este 14 Este 0 -- -- 65
2020-06-21 09:00:00 15.3 6 Este 9 Nordeste 0 -- -- 80
2020-06-21 08:00:00 12.5 7 Nordeste 12 Norte 0 -- -- 87
2020-06-21 07:00:00 11.8 10 Norte 12 Norte 0 -- -- 87
2020-06-21 06:00:00 11.4 8 Nordeste 10 Nordeste 0 -- -- 90
2020-06-21 05:00:00 12.3 5 Norte 11 Norte 0 -- -- 89
2020-06-21 04:00:00 11.6 9 Nordeste 13 Nordeste 0 -- -- 90
2020-06-21 03:00:00 12.1 9 Nordeste 12 Nordeste 0 -- -- 85
2020-06-21 02:00:00 13.3 9 Nordeste 13 Nordeste 0 -- -- 83
2020-06-21 01:00:00 14.5 9 Norte 13 Norte 0 -- -- 71
2020-06-21 00:00:00 16 10 Oeste 15 Oeste 0 -- -- 59
2020-06-20 23:00:00 14.9 6 Oeste 12 Oeste 0 -- -- 68
2020-06-20 22:00:00 19 5 Oeste 11 Oeste 0 -- -- 59
2020-06-20 21:00:00 24.9 5 Oeste 17 Oeste 0 -- -- 40
2020-06-20 20:00:00 25.3 13 Sudoeste 21 Oeste 0 -- -- 35
2020-06-20 19:00:00 25.6 11 Oeste 29 Oeste 0 -- -- 34
2020-06-20 18:00:00 25.2 13 Oeste 35 Sudoeste 0 -- -- 35
2020-06-20 17:00:00 24.9 14 Oeste 30 Oeste 0 -- -- 34
2020-06-20 16:00:00 24.3 11 Sudoeste 26 Oeste 0 -- -- 39
2020-06-20 15:00:00 23.1 7 Sur 32 Oeste 0 -- -- 44
2020-06-20 14:00:00 21.7 13 Sudoeste 24 Oeste 0 -- -- 44
2020-06-20 13:00:00 20.3 9 Sudoeste 26 Oeste 0 -- -- 50
2020-06-20 12:00:00 19.1 9 Oeste 23 Sudoeste 0 -- -- 59
2020-06-20 11:00:00 18 11 Oeste 18 Oeste 0 -- -- 57
2020-06-20 10:00:00 16.6 3 Oeste 9 Nordeste 0 -- -- 68
2020-06-20 09:00:00 13.7 7 Nordeste 12 Nordeste 0 -- -- 80
2020-06-20 08:00:00 10.4 8 Norte 10 Norte 0 -- -- 90
2020-06-20 07:00:00 8.6 9 Norte 10 Norte 0 -- -- 93
2020-06-20 06:00:00 8.2 10 Norte 12 Norte 0 -- -- 93
2020-06-20 05:00:00 8.2 9 Nordeste 12 Nordeste 0 -- -- 93
2020-06-20 04:00:00 8.9 6 Nordeste 10 Nordeste 0 -- -- 92
2020-06-20 03:00:00 9.8 3 Este 9 Este 0 -- -- 88
2020-06-20 02:00:00 10.1 0 Calma 8 Este 0 -- -- 89
2020-06-20 01:00:00 11.3 0 Calma 12 Nordeste 0 -- -- 86
2020-06-20 00:00:00 12.7 7 Este 12 Este 0 -- -- 80
2020-06-19 23:00:00 14.9 8 Nordeste 17 Nordeste 0 -- -- 77
2020-06-19 22:00:00 17.6 2 Sudoeste 4 Sur 0 -- -- 62
2020-06-19 21:00:00 21.1 3 Oeste 15 Oeste 0 -- -- 54
2020-06-19 20:00:00 22.4 13 Oeste 23 Oeste 0 -- -- 40
2020-06-19 19:00:00 23.5 8 Oeste 27 Sudoeste 0 -- -- 37
2020-06-19 18:00:00 23.2 12 Oeste 22 Noroeste 0 -- -- 37
2020-06-19 17:00:00 22.5 14 Sudoeste 25 Sudoeste 0 -- -- 37
2020-06-19 16:00:00 21.9 10 Sudoeste 25 Oeste 0 -- -- 38
2020-06-19 15:00:00 21 12 Oeste 23 Oeste 0 -- -- 39
2020-06-19 14:00:00 19.7 8 Oeste 24 Sudoeste 0 -- -- 47
2020-06-19 13:00:00 18.7 10 Oeste 20 Oeste 0 -- -- 53
2020-06-19 12:00:00 17.8 6 Sudoeste 14 Sudoeste 0 -- -- 61
2020-06-19 11:00:00 16.2 3 Nordeste 13 Este 0 -- -- 67
2020-06-19 10:00:00 14.7 9 Este 18 Este 0 -- -- 67
2020-06-19 09:00:00 12.4 10 Nordeste 16 Nordeste 0 -- -- 73
2020-06-19 08:00:00 9.9 10 Nordeste 13 Norte 0 -- -- 83
2020-06-19 07:00:00 7.1 7 Norte 12 Nordeste 0 -- -- 92
2020-06-19 06:00:00 7.1 9 Nordeste 12 Nordeste 0 -- -- 93
2020-06-19 05:00:00 7.4 10 Nordeste 13 Nordeste 0 -- -- 94
2020-06-19 04:00:00 7.3 8 Nordeste 10 Nordeste 0 -- -- 94
2020-06-19 03:00:00 7.9 8 Nordeste 11 Nordeste 0 -- -- 93
2020-06-19 02:00:00 8.5 9 Nordeste 14 Nordeste 0 -- -- 93
2020-06-19 01:00:00 9.6 8 Nordeste 20 Nordeste 0 -- -- 90
2020-06-19 00:00:00 10.5 11 Nordeste 20 Este 0 -- -- 87
2020-06-18 23:00:00 11.4 11 Nordeste 20 Este 0 -- -- 84
2020-06-18 22:00:00 13.6 11 Este 24 Nordeste 0 -- -- 75
2020-06-18 21:00:00 16.9 14 Nordeste 22 Nordeste 0 -- -- 62
2020-06-18 20:00:00 20.6 9 Oeste 21 Oeste 0 -- -- 36
2020-06-18 19:00:00 20.4 9 Oeste 21 Sudoeste 0 -- -- 36
2020-06-18 18:00:00 20.3 15 Sudoeste 27 Sudoeste 0 -- -- 38
2020-06-18 17:00:00 19.2 12 Sudoeste 37 Sudoeste 0 -- -- 44
2020-06-18 16:00:00 19.4 15 Sudoeste 27 Oeste 0 -- -- 44
2020-06-18 15:00:00 18.3 12 Sudoeste 21 Oeste 0 -- -- 51
2020-06-18 14:00:00 17 9 Sudoeste 15 Oeste 0 -- -- 56
2020-06-18 13:00:00 15.3 4 Norte 11 Norte 0 -- -- 62
2020-06-18 12:00:00 15.6 5 Este 11 Sudeste 0 -- -- 63
2020-06-18 11:00:00 13.4 3 Oeste 10 Este 0 -- -- 68
2020-06-18 10:00:00 11.3 9 Nordeste 14 Nordeste 0 -- -- 86
2020-06-18 09:00:00 9.7 6 Nordeste 12 Nordeste 0 -- -- 92
2020-06-18 08:00:00 8.2 8 Nordeste 15 Nordeste 0 -- -- 98
2020-06-18 07:00:00 6.9 8 Norte 11 Nordeste 0 -- -- 97
2020-06-18 06:00:00 7.4 8 Norte 10 Norte 0 -- -- 95
2020-06-18 05:00:00 8.9 6 Nordeste 13 Nordeste 0 -- -- 96
2020-06-18 04:00:00 8.5 7 Nordeste 9 Nordeste 0 -- -- 98
2020-06-18 03:00:00 8 6 Nordeste 9 Nordeste 0 -- -- 96
2020-06-18 02:00:00 9.1 7 Este 18 Nordeste 0.2 -- -- 95
2020-06-18 01:00:00 10 6 Nordeste 13 Este 0 -- -- 92
2020-06-18 00:00:00 10.3 8 Nordeste 15 Este 0 -- -- 89
2020-06-17 23:00:00 10.8 6 Este 14 Este 0 -- -- 87
2020-06-17 22:00:00 11.6 8 Nordeste 22 Este 0 -- -- 86
2020-06-17 21:00:00 13.3 13 Este 25 Nordeste 0 -- -- 74
2020-06-17 20:00:00 16.5 3 Noroeste 7 Sur 0 -- -- 55
2020-06-17 19:00:00 17.7 8 Sudoeste 15 Oeste 0 -- -- 45
2020-06-17 18:00:00 17.5 7 Oeste 18 Oeste 0 -- -- 49
2020-06-17 17:00:00 16.7 9 Oeste 20 Oeste 0 -- -- 49
2020-06-17 16:00:00 16.7 10 Oeste 20 Oeste 0 -- -- 49
2020-06-17 15:00:00 16.7 12 Oeste 22 Oeste 0 -- -- 50
2020-06-17 14:00:00 15.6 8 Oeste 19 Sudoeste 0 -- -- 58
2020-06-17 13:00:00 14.6 6 Oeste 18 Oeste 0 -- -- 62
2020-06-17 12:00:00 13.2 9 Sudoeste 18 Oeste 0 -- -- 65
2020-06-17 11:00:00 12.9 4 Norte 19 Oeste 0 -- -- 72
2020-06-17 10:00:00 11.3 7 Sudoeste 13 Sudoeste 0 -- -- 84
2020-06-17 09:00:00 10 7 Oeste 13 Sudoeste 0 -- -- 93
2020-06-17 08:00:00 9.2 6 Oeste 9 Oeste 0.2 -- -- 97
2020-06-17 07:00:00 9 4 Oeste 8 Oeste 0 -- -- 97
2020-06-17 06:00:00 9.3 0 Calma -- -- 0 -- -- 96
2020-06-17 05:00:00 9.5 0 Calma -- -- 0 -- -- 94
2020-06-17 04:00:00 9.7 0 Calma 7 Sur 0 -- -- 94
2020-06-17 03:00:00 9.9 3 Sur 9 Sudeste 0 -- -- 93
2020-06-17 02:00:00 10 3 Sudeste 9 Sudeste 0 -- -- 93
2020-06-17 01:00:00 10.1 5 Sudeste 12 Sudeste 0 -- -- 92
2020-06-17 00:00:00 10.8 7 Sudeste 14 Este 0 -- -- 91
2020-06-16 23:00:00 11.7 8 Este 15 Este 0 -- -- 88
2020-06-16 22:00:00 13.1 8 Nordeste 13 Nordeste 0 -- -- 72
2020-06-16 21:00:00 14.8 5 Norte 12 Norte 0 -- -- 69
2020-06-16 20:00:00 16.2 3 Noroeste 22 Norte 0 -- -- 66
2020-06-16 19:00:00 17 15 Norte 25 Norte 0 -- -- 63
2020-06-16 18:00:00 16.3 12 Norte 31 Oeste 0 -- -- 66
2020-06-16 17:00:00 18.2 11 Noroeste 37 Oeste 0 -- -- 61
2020-06-16 16:00:00 18.4 29 Oeste 42 Oeste 0 -- -- 48
2020-06-16 15:00:00 16.7 18 Oeste 39 Oeste 0 -- -- 59
2020-06-16 14:00:00 15.9 15 Sudoeste 31 Sudoeste 0 -- -- 63
2020-06-16 13:00:00 14.6 16 Oeste 27 Sudoeste 0 -- -- 70
2020-06-16 12:00:00 13.3 11 Oeste 26 Oeste 0 -- -- 78
2020-06-16 11:00:00 12.5 11 Oeste 25 Oeste 0 -- -- 79
2020-06-16 10:00:00 11.6 10 Oeste 21 Oeste 0 -- -- 83
2020-06-16 09:00:00 10.2 0 Calma -- -- 0 -- -- 92
2020-06-16 08:00:00 7.3 0 Calma -- -- 0 -- -- 97
2020-06-16 07:00:00 7.2 0 Calma 9 Norte 0 -- -- 96
2020-06-16 06:00:00 6.8 8 Norte 12 Norte 0 -- -- 96
2020-06-16 05:00:00 7.7 4 Norte 9 Norte 0 -- -- 95
2020-06-16 04:00:00 7.8 8 Nordeste 11 Norte 0 -- -- 92
2020-06-16 03:00:00 8 0 Calma 9 Norte 0 -- -- 88
2020-06-16 02:00:00 9.3 5 Norte 12 Oeste 0 -- -- 84
2020-06-16 01:00:00 10.3 9 Oeste 14 Oeste 0 -- -- 80
2020-06-16 00:00:00 11.4 7 Oeste 16 Oeste 0 -- -- 74
2020-06-15 23:00:00 13 9 Oeste 21 Oeste 0 -- -- 66
2020-06-15 22:00:00 14.5 10 Oeste 22 Oeste 0 -- -- 60
2020-06-15 21:00:00 15.3 8 Oeste 22 Oeste 0 -- -- 59
2020-06-15 20:00:00 16.5 15 Oeste 27 Oeste 0 -- -- 57
2020-06-15 19:00:00 17.3 15 Oeste 33 Oeste 0 -- -- 54
2020-06-15 18:00:00 17.8 19 Oeste 36 Sudoeste 0 -- -- 50
2020-06-15 17:00:00 18 21 Oeste 35 Oeste 0 -- -- 53
2020-06-15 16:00:00 17.7 17 Oeste 37 Oeste 0 -- -- 55
2020-06-15 15:00:00 16.9 14 Sudoeste 30 Sudoeste 0 -- -- 55
2020-06-15 14:00:00 16.5 13 Oeste 30 Oeste 0 -- -- 58
2020-06-15 13:00:00 16 15 Sudoeste 30 Oeste 0 -- -- 60
2020-06-15 12:00:00 15 12 Oeste 30 Oeste 0 -- -- 60
2020-06-15 11:00:00 13.7 13 Oeste 25 Oeste 0 -- -- 66
2020-06-15 10:00:00 11.7 13 Oeste 20 Oeste 0 -- -- 77
2020-06-15 09:00:00 9.8 9 Oeste 18 Oeste 0 -- -- 88
2020-06-15 08:00:00 7.2 3 Noroeste 7 Oeste 0 -- -- 98
2020-06-15 07:00:00 3.6 0 Calma -- -- 0 -- -- 95
2020-06-15 06:00:00 4.3 0 Calma -- -- 0 -- -- 94
2020-06-15 05:00:00 5.2 0 Calma -- -- 0 -- -- 92
2020-06-15 04:00:00 7.3 0 Calma 13 Oeste 0 -- -- 92
2020-06-15 03:00:00 8.6 6 Oeste 18 Oeste 0 -- -- 90
2020-06-15 02:00:00 9.6 12 Oeste 20 Oeste 0 -- -- 84
2020-06-15 01:00:00 11.4 8 Oeste 18 Oeste 0 -- -- 77
2020-06-15 00:00:00 12 9 Oeste 22 Oeste 0 -- -- 73
2020-06-14 23:00:00 13.1 13 Oeste 24 Oeste 0 -- -- 68
2020-06-14 22:00:00 13.5 6 Oeste 17 Oeste 0 -- -- 65
2020-06-14 21:00:00 14.4 12 Oeste 23 Oeste 0 -- -- 59
2020-06-14 20:00:00 15.5 12 Oeste 30 Oeste 0 -- -- 57
2020-06-14 19:00:00 16.3 13 Oeste 31 Sudoeste 0 -- -- 53
2020-06-14 18:00:00 17 19 Oeste 32 Oeste 0 -- -- 52
2020-06-14 17:00:00 16.6 19 Oeste 32 Sudoeste 0 -- -- 53
2020-06-14 16:00:00 16.2 17 Oeste 31 Noroeste 0 -- -- 52
2020-06-14 15:00:00 15.3 15 Oeste 33 Oeste 0 -- -- 57
2020-06-14 14:00:00 14.8 18 Oeste 35 Sudoeste 0 -- -- 57
2020-06-14 13:00:00 14 18 Oeste 35 Oeste 0 -- -- 60
2020-06-14 12:00:00 13.2 18 Oeste 33 Oeste 0 -- -- 65
2020-06-14 11:00:00 12.3 16 Oeste 27 Oeste 0 -- -- 66
2020-06-14 10:00:00 10.7 17 Oeste 26 Oeste 0 -- -- 79
2020-06-14 09:00:00 8.7 9 Oeste 17 Oeste 0 -- -- 90
2020-06-14 08:00:00 6.4 0 Calma -- -- 0 -- -- 100
2020-06-14 07:00:00 3.2 0 Calma 6 Oeste 0 -- -- 98
2020-06-14 06:00:00 3.3 3 Oeste 5 Oeste 0 -- -- 97
2020-06-14 05:00:00 3.9 4 Oeste 7 Oeste 0 -- -- 97
2020-06-14 04:00:00 3.5 5 Oeste 7 Oeste 0 -- -- 97
2020-06-14 03:00:00 4.4 4 Sudoeste 8 Oeste 0 -- -- 95
2020-06-14 02:00:00 5.6 0 Calma 7 Oeste 0 -- -- 95
2020-06-14 01:00:00 7 3 Oeste 10 Noroeste 0 -- -- 89
2020-06-14 00:00:00 8.7 5 Oeste 13 Oeste 0 -- -- 84
2020-06-13 23:00:00 9.6 6 Oeste 12 Oeste 0 -- -- 82
2020-06-13 22:00:00 11.2 5 Oeste 17 Sudoeste 0 -- -- 73
2020-06-13 21:00:00 13.2 9 Oeste 21 Oeste 0 -- -- 71
2020-06-13 20:00:00 13.3 10 Oeste 28 Oeste 0 -- -- 72
2020-06-13 19:00:00 13.9 15 Oeste 47 Oeste 0 -- -- 70
2020-06-13 18:00:00 15.7 27 Sudoeste 43 Sudoeste 0 -- -- 59
2020-06-13 17:00:00 14.2 17 Sudoeste 33 Sudoeste 0 -- -- 64
2020-06-13 16:00:00 13.9 13 Sudoeste 28 Sudoeste 0 -- -- 66
2020-06-13 15:00:00 14.2 22 Sudoeste 33 Sudoeste 0 -- -- 64
2020-06-13 14:00:00 13.3 12 Oeste 36 Oeste 0 -- -- 66
2020-06-13 13:00:00 13.8 19 Oeste 35 Sudoeste 0 -- -- 67
2020-06-13 12:00:00 11.2 21 Oeste 38 Oeste 0 -- -- 73
2020-06-13 11:00:00 10.4 23 Oeste 37 Oeste 0 -- -- 77
2020-06-13 10:00:00 10 20 Oeste 36 Sudoeste 0 -- -- 81
2020-06-13 09:00:00 8.6 14 Oeste 24 Sudoeste 0 -- -- 89
2020-06-13 08:00:00 7.8 15 Oeste 26 Sudoeste 0 -- -- 90
2020-06-13 07:00:00 7.4 13 Oeste 26 Oeste 0 -- -- 92
2020-06-13 06:00:00 6.9 14 Oeste 22 Oeste 0 -- -- 94
2020-06-13 05:00:00 7 14 Oeste 26 Sudoeste 0 -- -- 92
2020-06-13 04:00:00 7.1 13 Sudoeste 26 Oeste 0 -- -- 95
2020-06-13 03:00:00 7.6 13 Sudoeste 24 Oeste 0 -- -- 96
2020-06-13 02:00:00 7.6 17 Oeste 27 Oeste 0 -- -- 93
2020-06-13 01:00:00 8.4 15 Oeste 31 Sudoeste 0 -- -- 89
2020-06-13 00:00:00 8.7 16 Oeste 26 Oeste 0 -- -- 86
2020-06-12 23:00:00 8.6 12 Sudoeste 24 Oeste 0 -- -- 84
2020-06-12 22:00:00 9.7 13 Oeste 30 Oeste 0 -- -- 78
2020-06-12 21:00:00 11.7 17 Oeste 44 Oeste 0 -- -- 69
2020-06-12 20:00:00 12.8 22 Oeste 42 Oeste 0.2 -- -- 62
2020-06-12 19:00:00 12.1 20 Oeste 41 Oeste 0 -- -- 68
2020-06-12 18:00:00 12.3 27 Oeste 43 Oeste 0 -- -- 72
2020-06-12 17:00:00 12.3 26 Oeste 46 Sudoeste 0 -- -- 72
2020-06-12 16:00:00 10.8 27 Sudoeste 40 Sudoeste 0.2 -- -- 89
2020-06-12 15:00:00 9 19 Oeste 37 Oeste 1.6 -- -- 89
2020-06-12 14:00:00 10.9 25 Oeste 40 Oeste 0 -- -- 67
2020-06-12 13:00:00 11.4 23 Oeste 46 Oeste 0 -- -- 64
2020-06-12 12:00:00 11 24 Oeste 46 Oeste 0 -- -- 63
2020-06-12 11:00:00 10.3 28 Oeste 47 Oeste 0 -- -- 64
2020-06-12 10:00:00 9.4 27 Oeste 44 Oeste 0 -- -- 74
2020-06-12 09:00:00 8.1 21 Oeste 39 Oeste 0 -- -- 83
2020-06-12 08:00:00 6.8 23 Sudoeste 43 Sudoeste 0 -- -- 98
2020-06-12 07:00:00 6.6 24 Sudoeste 50 Sudoeste 0 -- -- 98
2020-06-12 06:00:00 6.4 31 Sudoeste 52 Sudoeste 0.2 -- -- 97
2020-06-12 05:00:00 6.2 30 Sudoeste 49 Sudoeste 0.4 -- -- 96
2020-06-12 04:00:00 6.1 29 Sudoeste 47 Sudoeste 0.2 -- -- 94
2020-06-12 03:00:00 6.4 29 Sudoeste 47 Sudoeste 0 -- -- 89
2020-06-12 02:00:00 6.8 23 Sudoeste 40 Sudoeste 0 -- -- 82
2020-06-12 01:00:00 7.3 19 Oeste 35 Oeste 0 -- -- 78
2020-06-12 00:00:00 6.9 16 Oeste 35 Oeste 0 -- -- 77